createdAt,value
2023-04-16T00:00:36.506Z,97.1
2023-04-16T00:01:37.508Z,97.1
2023-04-16T00:02:39.441Z,97
2023-04-16T00:03:41.696Z,97
2023-04-16T00:04:43.148Z,97
2023-04-16T00:05:44.390Z,97
2023-04-16T00:06:45.727Z,97
2023-04-16T00:07:46.888Z,97
2023-04-16T00:08:48.052Z,97
2023-04-16T00:09:49.030Z,97
2023-04-16T00:10:50.179Z,97
2023-04-16T00:11:51.197Z,97
2023-04-16T00:12:52.210Z,97
2023-04-16T00:13:53.379Z,97
2023-04-16T00:14:54.541Z,97
2023-04-16T00:15:55.710Z,97
2023-04-16T00:16:56.739Z,97
2023-04-16T00:17:58.266Z,97
2023-04-16T00:18:59.292Z,97
2023-04-16T00:20:00.464Z,97
2023-04-16T00:21:01.715Z,97
2023-04-16T00:22:02.743Z,97
2023-04-16T00:23:03.708Z,97
2023-04-16T00:24:04.875Z,97
2023-04-16T00:25:06.032Z,97
2023-04-16T00:26:07.195Z,97
2023-04-16T00:27:08.361Z,96.9
2023-04-16T00:28:11.879Z,96.9
2023-04-16T00:29:13.053Z,96.9
2023-04-16T00:30:14.014Z,96.9
2023-04-16T00:31:15.024Z,96.9
2023-04-16T00:32:16.204Z,96.9
2023-04-16T00:33:17.450Z,96.9
2023-04-16T00:34:18.613Z,96.9
2023-04-16T00:35:19.774Z,96.9
2023-04-16T00:36:20.938Z,96.9
2023-04-16T00:37:21.908Z,96.9
2023-04-16T00:38:22.950Z,96.9
2023-04-16T00:39:23.995Z,96.9
2023-04-16T00:40:25.161Z,96.9
2023-04-16T00:41:26.321Z,96.8
2023-04-16T00:42:27.491Z,96.8
2023-04-16T00:43:28.654Z,96.8
2023-04-16T00:44:29.818Z,96.8
2023-04-16T00:45:30.990Z,96.8
2023-04-16T00:46:32.201Z,96.8
2023-04-16T00:47:33.326Z,96.8
2023-04-16T00:48:34.555Z,96.8
2023-04-16T00:49:35.525Z,96.8
2023-04-16T00:50:36.711Z,96.7
2023-04-16T00:51:37.667Z,96.7
2023-04-16T00:52:38.831Z,96.8
2023-04-16T00:53:39.658Z,96.7
2023-04-16T00:54:40.479Z,96.7
2023-04-16T00:55:41.255Z,96.7
2023-04-16T00:56:42.417Z,96.7
2023-04-16T00:57:43.388Z,96.7
2023-04-16T00:58:44.354Z,96.7
2023-04-16T00:59:45.320Z,96.7
2023-04-16T01:00:46.484Z,96.8
2023-04-16T01:01:47.913Z,96.8
2023-04-16T01:02:49.398Z,96.7
2023-04-16T01:03:50.506Z,96.7
2023-04-16T01:04:51.776Z,96.7
2023-04-16T01:05:52.947Z,96.6
2023-04-16T01:06:54.107Z,96.6
2023-04-16T01:07:55.272Z,96.6
2023-04-16T01:08:56.238Z,96.6
2023-04-16T01:09:57.408Z,96.6
2023-04-16T01:10:58.373Z,96.6
2023-04-16T01:11:59.536Z,96.5
2023-04-16T01:13:00.521Z,96.5
2023-04-16T01:14:01.670Z,96.5
2023-04-16T01:15:02.898Z,96.4
2023-04-16T01:16:04.013Z,96.5
2023-04-16T01:17:05.157Z,96.5
2023-04-16T01:18:06.385Z,96.5
2023-04-16T01:19:08.115Z,96.5
2023-04-16T01:20:09.491Z,96.5
2023-04-16T01:21:10.658Z,96.5
2023-04-16T01:22:11.825Z,96.5
2023-04-16T01:23:12.808Z,96.5
2023-04-16T01:24:13.954Z,96.5
2023-04-16T01:25:14.790Z,96.5
2023-04-16T01:26:15.822Z,96.5
2023-04-16T01:27:16.988Z,96.5
2023-04-16T01:28:18.150Z,96.5
2023-04-16T01:29:19.315Z,96.5
2023-04-16T01:30:20.477Z,96.5
2023-04-16T01:31:21.598Z,96.5
2023-04-16T01:32:22.791Z,96.4
2023-04-16T01:33:24.053Z,96.4
2023-04-16T01:34:25.200Z,96.4
2023-04-16T01:35:26.213Z,96.3
2023-04-16T01:36:27.376Z,96.3
2023-04-16T01:37:28.541Z,96.3
2023-04-16T01:38:29.706Z,96.3
2023-04-16T01:39:30.529Z,96.2
2023-04-16T01:40:31.686Z,96.2
2023-04-16T01:41:32.845Z,96.2
2023-04-16T01:42:34.011Z,96.2
2023-04-16T01:43:35.173Z,96.2
2023-04-16T01:44:36.342Z,96.2
2023-04-16T01:45:37.365Z,96.2
2023-04-16T01:46:38.505Z,96.2
2023-04-16T01:47:39.681Z,96.2
2023-04-16T01:48:40.872Z,96.2
2023-04-16T01:49:42.015Z,96.2
2023-04-16T01:50:43.133Z,96.2
2023-04-16T01:51:44.478Z,96.2
2023-04-16T01:52:45.641Z,96.2
2023-04-16T01:53:46.805Z,96.2
2023-04-16T01:54:47.771Z,96.1
2023-04-16T01:55:48.933Z,96.1
2023-04-16T01:56:50.102Z,96.2
2023-04-16T01:57:51.263Z,96.2
2023-04-16T01:58:52.428Z,96.2
2023-04-16T01:59:53.594Z,96.2
2023-04-16T02:00:54.774Z,96.1
2023-04-16T02:01:56.233Z,96.1
2023-04-16T02:02:57.759Z,96.2
2023-04-16T02:03:59.181Z,96.1
2023-04-16T02:05:00.382Z,96.1
2023-04-16T02:06:01.357Z,96
2023-04-16T02:07:02.521Z,96
2023-04-16T02:08:03.622Z,96
2023-04-16T02:09:04.786Z,96
2023-04-16T02:10:06.050Z,95.9
2023-04-16T02:11:07.219Z,95.9
2023-04-16T02:12:08.228Z,95.9
2023-04-16T02:13:09.392Z,95.9
2023-04-16T02:14:10.363Z,95.9
2023-04-16T02:15:11.329Z,95.9
2023-04-16T02:16:12.474Z,95.9
2023-04-16T02:17:13.620Z,96
2023-04-16T02:18:14.778Z,96
2023-04-16T02:19:15.976Z,96
2023-04-16T02:20:17.015Z,96
2023-04-16T02:21:17.981Z,96
2023-04-16T02:22:19.151Z,96
2023-04-16T02:23:20.307Z,96.1
2023-04-16T02:24:21.476Z,96.1
2023-04-16T02:25:22.485Z,96.1
2023-04-16T02:26:23.659Z,96.1
2023-04-16T02:27:24.615Z,96.1
2023-04-16T02:28:25.584Z,96.1
2023-04-16T02:29:26.743Z,96.1
2023-04-16T02:30:27.905Z,96.1
2023-04-16T02:31:29.303Z,96.1
2023-04-16T02:32:30.310Z,96.1
2023-04-16T02:33:31.512Z,96.1
2023-04-16T02:34:32.696Z,96.1
2023-04-16T02:35:33.643Z,96
2023-04-16T02:36:34.800Z,96
2023-04-16T02:37:35.967Z,96
2023-04-16T02:38:36.982Z,96
2023-04-16T02:39:38.146Z,96
2023-04-16T02:40:39.309Z,96
2023-04-16T02:41:40.473Z,96
2023-04-16T02:42:41.640Z,96
2023-04-16T02:43:42.840Z,96
2023-04-16T02:44:43.982Z,96
2023-04-16T02:45:45.161Z,96
2023-04-16T02:46:46.132Z,96
2023-04-16T02:47:47.286Z,96
2023-04-16T02:48:48.254Z,96
2023-04-16T02:49:49.440Z,96
2023-04-16T02:50:50.589Z,96
2023-04-16T02:51:51.750Z,96
2023-04-16T02:52:53.400Z,96
2023-04-16T02:53:54.418Z,96
2023-04-16T02:54:55.581Z,96
2023-04-16T02:55:56.748Z,96
2023-04-16T02:56:57.715Z,96
2023-04-16T02:57:58.876Z,96
2023-04-16T02:59:00.048Z,96
2023-04-16T03:00:01.013Z,96
2023-04-16T03:01:02.337Z,96.1
2023-04-16T03:02:03.624Z,96.1
2023-04-16T03:03:04.939Z,96.1
2023-04-16T03:04:05.915Z,96.1
2023-04-16T03:05:07.074Z,96.1
2023-04-16T03:06:08.214Z,96
2023-04-16T03:07:09.389Z,96
2023-04-16T03:08:10.396Z,96
2023-04-16T03:09:12.326Z,96
2023-04-16T03:10:13.543Z,95.9
2023-04-16T03:11:14.711Z,95.9
2023-04-16T03:12:15.870Z,95.9
2023-04-16T03:13:17.044Z,95.8
2023-04-16T03:14:18.202Z,95.8
2023-04-16T03:15:19.366Z,95.7
2023-04-16T03:16:20.676Z,95.7
2023-04-16T03:17:21.936Z,95.7
2023-04-16T03:18:22.891Z,95.7
2023-04-16T03:19:24.047Z,95.7
2023-04-16T03:20:25.240Z,95.6
2023-04-16T03:21:26.376Z,95.6
2023-04-16T03:22:27.541Z,95.6
2023-04-16T03:23:28.704Z,95.5
2023-04-16T03:24:29.864Z,95.4
2023-04-16T03:25:31.034Z,95.4
2023-04-16T03:26:32.194Z,95.4
2023-04-16T03:27:33.362Z,95.4
2023-04-16T03:28:34.520Z,95.3
2023-04-16T03:29:35.693Z,95.4
2023-04-16T03:30:36.703Z,95.4
2023-04-16T03:31:37.914Z,95.4
2023-04-16T03:32:39.491Z,95.3
2023-04-16T03:33:40.455Z,95.3
2023-04-16T03:34:41.472Z,95.4
2023-04-16T03:35:42.651Z,95.4
2023-04-16T03:36:43.595Z,95.4
2023-04-16T03:37:44.757Z,95.5
2023-04-16T03:38:45.749Z,95.5
2023-04-16T03:39:46.897Z,95.5
2023-04-16T03:40:48.055Z,95.5
2023-04-16T03:41:49.220Z,95.5
2023-04-16T03:42:50.031Z,95.5
2023-04-16T03:43:51.203Z,95.6
2023-04-16T03:44:52.359Z,95.5
2023-04-16T03:45:53.526Z,95.5
2023-04-16T03:46:54.396Z,95.4
2023-04-16T03:47:55.509Z,95.4
2023-04-16T03:48:56.719Z,95.4
2023-04-16T03:49:57.884Z,95.4
2023-04-16T03:50:59.074Z,95.4
2023-04-16T03:52:00.221Z,95.4
2023-04-16T03:53:01.391Z,95.4
2023-04-16T03:54:02.829Z,95.4
2023-04-16T03:55:03.982Z,95.4
2023-04-16T03:56:04.813Z,95.4
2023-04-16T03:57:05.970Z,95.4
2023-04-16T03:58:07.139Z,95.3
2023-04-16T03:59:09.201Z,95.3
2023-04-16T04:00:10.435Z,95.3
2023-04-16T04:01:11.451Z,95.3
2023-04-16T04:02:12.838Z,95.2
2023-04-16T04:03:14.689Z,95.2
2023-04-16T04:04:16.059Z,95.2
2023-04-16T04:05:17.208Z,95.2
2023-04-16T04:06:18.025Z,95.2
2023-04-16T04:07:19.153Z,95.1
2023-04-16T04:08:20.306Z,95.1
2023-04-16T04:09:21.473Z,95.1
2023-04-16T04:10:22.633Z,95.1
2023-04-16T04:11:23.803Z,95.1
2023-04-16T04:12:24.962Z,95.2
2023-04-16T04:13:26.135Z,95.2
2023-04-16T04:14:27.290Z,95.3
2023-04-16T04:15:28.459Z,95.3
2023-04-16T04:16:29.648Z,95.4
2023-04-16T04:17:30.919Z,95.4
2023-04-16T04:18:32.085Z,95.3
2023-04-16T04:19:33.241Z,95.3
2023-04-16T04:20:34.212Z,95.4
2023-04-16T04:21:35.196Z,95.4
2023-04-16T04:22:36.339Z,95.4
2023-04-16T04:23:37.509Z,95.4
2023-04-16T04:24:38.473Z,95.3
2023-04-16T04:25:39.483Z,95.3
2023-04-16T04:26:40.649Z,95.3
2023-04-16T04:27:41.809Z,95.3
2023-04-16T04:28:42.988Z,95.3
2023-04-16T04:29:44.137Z,95.3
2023-04-16T04:30:45.303Z,95.3
2023-04-16T04:31:46.625Z,95.4
2023-04-16T04:32:47.959Z,95.4
2023-04-16T04:33:49.155Z,95.4
2023-04-16T04:34:50.339Z,95.4
2023-04-16T04:35:51.526Z,95.4
2023-04-16T04:36:52.779Z,95.3
2023-04-16T04:37:53.937Z,95.4
2023-04-16T04:38:58.015Z,95.4
2023-04-16T04:39:59.044Z,95.4
2023-04-16T04:41:00.202Z,95.4
2023-04-16T04:42:01.169Z,95.4
2023-04-16T04:43:02.356Z,95.4
2023-04-16T04:44:03.492Z,95.4
2023-04-16T04:45:04.465Z,95.4
2023-04-16T04:46:05.596Z,95.5
2023-04-16T04:47:06.732Z,95.5
2023-04-16T04:48:07.702Z,95.4
2023-04-16T04:49:09.330Z,95.4
2023-04-16T04:50:10.571Z,95.3
2023-04-16T04:51:11.730Z,95.3
2023-04-16T04:52:12.916Z,95.3
2023-04-16T04:53:14.062Z,95.3
2023-04-16T04:54:15.227Z,95.3
2023-04-16T04:55:16.756Z,95.3
2023-04-16T04:56:17.912Z,95.3
2023-04-16T04:57:18.882Z,95.3
2023-04-16T04:58:19.850Z,95.3
2023-04-16T04:59:21.018Z,95.2
2023-04-16T05:00:22.182Z,95.2
2023-04-16T05:01:23.381Z,95.2
2023-04-16T05:02:24.886Z,95.1
2023-04-16T05:03:26.190Z,95.1
2023-04-16T05:04:27.357Z,95.1
2023-04-16T05:05:28.590Z,95.1
2023-04-16T05:06:30.440Z,95
2023-04-16T05:07:31.641Z,95
2023-04-16T05:08:32.574Z,95
2023-04-16T05:09:33.552Z,94.9
2023-04-16T05:10:34.722Z,94.8
2023-04-16T05:11:35.691Z,94.8
2023-04-16T05:12:36.844Z,94.8
2023-04-16T05:13:38.012Z,94.8
2023-04-16T05:14:39.174Z,94.8
2023-04-16T05:15:40.341Z,94.8
2023-04-16T05:16:41.603Z,94.7
2023-04-16T05:17:42.853Z,94.7
2023-04-16T05:18:43.879Z,94.7
2023-04-16T05:19:45.038Z,94.8
2023-04-16T05:20:46.044Z,94.8
2023-04-16T05:21:47.015Z,94.8
2023-04-16T05:22:48.204Z,94.8
2023-04-16T05:23:49.211Z,94.8
2023-04-16T05:24:50.375Z,94.9
2023-04-16T05:25:51.390Z,94.9
2023-04-16T05:26:52.553Z,94.9
2023-04-16T05:27:53.713Z,95
2023-04-16T05:28:54.877Z,95.1
2023-04-16T05:29:56.039Z,95.1
2023-04-16T05:30:57.254Z,95.2
2023-04-16T05:31:58.395Z,95.2
2023-04-16T05:32:59.584Z,95.3
2023-04-16T05:34:00.729Z,95.3
2023-04-16T05:35:01.895Z,95.3
2023-04-16T05:36:03.052Z,95.3
2023-04-16T05:37:04.224Z,95.3
2023-04-16T05:38:05.402Z,95.3
2023-04-16T05:39:06.567Z,95.3
2023-04-16T05:40:07.855Z,95.3
2023-04-16T05:41:09.018Z,95.2
2023-04-16T05:42:10.178Z,95.2
2023-04-16T05:43:11.344Z,95.2
2023-04-16T05:44:12.306Z,95.2
2023-04-16T05:45:13.477Z,95.1
2023-04-16T05:46:14.592Z,95.1
2023-04-16T05:47:15.760Z,95.1
2023-04-16T05:48:16.913Z,95
2023-04-16T05:49:18.076Z,95
2023-04-16T05:50:19.082Z,95.1
2023-04-16T05:51:20.248Z,95
2023-04-16T05:52:21.415Z,95
2023-04-16T05:53:22.599Z,95
2023-04-16T05:54:23.766Z,95
2023-04-16T05:55:24.923Z,95
2023-04-16T05:56:26.318Z,95
2023-04-16T05:57:27.286Z,95
2023-04-16T05:58:28.450Z,94.9
2023-04-16T05:59:29.612Z,94.9
2023-04-16T06:00:30.619Z,94.9
2023-04-16T06:01:34.861Z,94.8
2023-04-16T06:02:36.374Z,94.8
2023-04-16T06:03:37.751Z,94.8
2023-04-16T06:04:38.942Z,94.8
2023-04-16T06:05:40.332Z,94.8
2023-04-16T06:06:41.481Z,94.8
2023-04-16T06:07:42.669Z,94.8
2023-04-16T06:08:43.848Z,94.8
2023-04-16T06:09:45.221Z,94.9
2023-04-16T06:10:46.389Z,94.9
2023-04-16T06:11:47.548Z,94.9
2023-04-16T06:12:48.708Z,94.9
2023-04-16T06:13:49.709Z,94.9
2023-04-16T06:14:50.681Z,94.8
2023-04-16T06:15:52.067Z,94.8
2023-04-16T06:16:53.225Z,94.8
2023-04-16T06:17:54.150Z,94.8
2023-04-16T06:18:55.295Z,94.8
2023-04-16T06:19:56.466Z,94.8
2023-04-16T06:20:57.621Z,94.8
2023-04-16T06:21:58.788Z,94.8
2023-04-16T06:22:59.961Z,94.8
2023-04-16T06:24:01.140Z,94.8
2023-04-16T06:25:02.173Z,94.8
2023-04-16T06:26:03.136Z,94.7
2023-04-16T06:27:04.295Z,94.7
2023-04-16T06:28:05.262Z,94.7
2023-04-16T06:29:06.430Z,94.7
2023-04-16T06:30:07.600Z,94.7
2023-04-16T06:31:08.646Z,94.7
2023-04-16T06:32:09.806Z,94.7
2023-04-16T06:33:10.966Z,94.7
2023-04-16T06:34:12.131Z,94.8
2023-04-16T06:35:13.290Z,94.9
2023-04-16T06:36:14.464Z,94.9
2023-04-16T06:37:15.619Z,95
2023-04-16T06:38:16.790Z,95
2023-04-16T06:39:17.972Z,95
2023-04-16T06:40:19.141Z,95
2023-04-16T06:41:20.295Z,94.9
2023-04-16T06:42:21.459Z,95
2023-04-16T06:43:22.631Z,95
2023-04-16T06:44:23.592Z,95
2023-04-16T06:45:24.757Z,95
2023-04-16T06:46:26.041Z,95
2023-04-16T06:47:27.262Z,95.1
2023-04-16T06:48:28.393Z,95.1
2023-04-16T06:49:29.557Z,95.1
2023-04-16T06:50:30.726Z,95.1
2023-04-16T06:51:31.893Z,95.1
2023-04-16T06:52:32.937Z,95.1
2023-04-16T06:53:33.900Z,95.1
2023-04-16T06:54:34.893Z,95.1
2023-04-16T06:55:36.036Z,95.1
2023-04-16T06:56:37.194Z,95.2
2023-04-16T06:57:38.401Z,95.2
2023-04-16T06:58:39.566Z,95.2
2023-04-16T06:59:40.726Z,95.1
2023-04-16T07:00:41.785Z,95.1
2023-04-16T07:01:42.980Z,95.1
2023-04-16T07:02:44.566Z,95.1
2023-04-16T07:03:46.335Z,95.1
2023-04-16T07:04:26.609Z,96
2023-04-16T07:05:27.863Z,97
2023-04-16T07:06:29.089Z,96.7
2023-04-16T07:07:30.320Z,96.4
2023-04-16T07:08:31.548Z,96.2
2023-04-16T07:09:32.798Z,96
2023-04-16T07:10:34.040Z,95.8
2023-04-16T07:11:35.255Z,95.6
2023-04-16T07:12:36.487Z,95.6
2023-04-16T07:13:37.720Z,95.4
2023-04-16T07:14:38.954Z,95.3
2023-04-16T07:15:40.198Z,95.3
2023-04-16T07:16:41.481Z,95.2
2023-04-16T07:17:42.800Z,95.2
2023-04-16T07:18:44.017Z,95.2
2023-04-16T07:19:45.274Z,95.1
2023-04-16T07:20:46.488Z,95.1
2023-04-16T07:21:47.729Z,95.1
2023-04-16T07:22:48.955Z,95.2
2023-04-16T07:23:49.730Z,95.2
2023-04-16T07:24:50.621Z,95.1
2023-04-16T07:25:51.874Z,95.1
2023-04-16T07:26:53.081Z,95.1
2023-04-16T07:27:54.047Z,95.1
2023-04-16T07:28:55.296Z,95.1
2023-04-16T07:29:56.541Z,95.2
2023-04-16T07:30:57.497Z,95.2
2023-04-16T07:31:58.774Z,95.2
2023-04-16T07:32:59.923Z,95.2
2023-04-16T07:34:01.148Z,95.2
2023-04-16T07:35:02.384Z,95.2
2023-04-16T07:36:03.624Z,95.2
2023-04-16T07:37:04.851Z,95.2
2023-04-16T07:38:06.136Z,95.2
2023-04-16T07:39:07.376Z,95.2
2023-04-16T07:40:08.601Z,95.2
2023-04-16T07:41:09.862Z,95.2
2023-04-16T07:42:11.084Z,95.2
2023-04-16T07:43:12.309Z,95.2
2023-04-16T07:44:13.548Z,95.2
2023-04-16T07:45:14.781Z,95.1
2023-04-16T07:46:16.086Z,95.1
2023-04-16T07:47:17.323Z,95.1
2023-04-16T07:48:18.556Z,95.1
2023-04-16T07:49:19.789Z,95.1
2023-04-16T07:50:21.039Z,95.1
2023-04-16T07:51:22.063Z,95.1
2023-04-16T07:52:23.298Z,95.1
2023-04-16T07:53:24.530Z,95.1
2023-04-16T07:54:27.796Z,95.1
2023-04-16T07:55:29.905Z,95.1
2023-04-16T07:56:31.161Z,95.1
2023-04-16T07:57:32.443Z,95.1
2023-04-16T07:58:33.412Z,95.1
2023-04-16T07:59:34.445Z,95
2023-04-16T08:00:35.686Z,95
2023-04-16T08:01:36.916Z,95
2023-04-16T08:02:38.631Z,95
2023-04-16T08:03:40.018Z,95
2023-04-16T08:04:42.033Z,94.9
2023-04-16T08:05:43.100Z,94.9
2023-04-16T08:06:44.365Z,95
2023-04-16T08:07:45.376Z,95
2023-04-16T08:08:46.614Z,95
2023-04-16T08:09:47.855Z,95
2023-04-16T08:10:49.082Z,95
2023-04-16T08:11:50.337Z,94.9
2023-04-16T08:12:51.272Z,94.9
2023-04-16T08:13:52.313Z,95
2023-04-16T08:14:53.197Z,95
2023-04-16T08:15:53.888Z,95.1
2023-04-16T08:16:54.958Z,95
2023-04-16T08:17:56.259Z,95
2023-04-16T08:18:57.473Z,95
2023-04-16T08:19:58.708Z,95
2023-04-16T08:20:59.943Z,95
2023-04-16T08:22:01.178Z,95.1
2023-04-16T08:23:02.147Z,95.1
2023-04-16T08:24:03.388Z,95.2
2023-04-16T08:25:04.430Z,95.2
2023-04-16T08:26:05.518Z,95.2
2023-04-16T08:27:20.437Z,95.3
2023-04-16T08:28:21.710Z,95.3
2023-04-16T08:29:22.968Z,95.4
2023-04-16T08:30:23.803Z,95.3
2023-04-16T08:31:25.042Z,95.3
2023-04-16T08:32:26.377Z,95.3
2023-04-16T08:33:27.692Z,95.2
2023-04-16T08:34:28.924Z,95.2
2023-04-16T08:35:30.154Z,95.1
2023-04-16T08:36:31.033Z,95.1
2023-04-16T08:37:32.270Z,95.1
2023-04-16T08:38:33.311Z,95
2023-04-16T08:39:34.544Z,95
2023-04-16T08:40:35.632Z,95
2023-04-16T08:41:36.861Z,94.9
2023-04-16T08:42:38.118Z,94.9
2023-04-16T08:43:39.077Z,94.9
2023-04-16T08:44:40.296Z,94.8
2023-04-16T08:45:41.529Z,94.8
2023-04-16T08:46:42.645Z,94.6
2023-04-16T08:47:43.591Z,94.6
2023-04-16T08:48:44.617Z,94.6
2023-04-16T08:49:45.843Z,94.6
2023-04-16T08:50:46.894Z,94.6
2023-04-16T08:51:48.127Z,94.6
2023-04-16T08:52:49.361Z,94.6
2023-04-16T08:53:50.762Z,94.6
2023-04-16T08:54:57.836Z,94.7
2023-04-16T08:55:59.069Z,94.6
2023-04-16T08:57:00.144Z,94.6
2023-04-16T08:58:01.395Z,94.6
2023-04-16T08:59:02.683Z,94.6
2023-04-16T09:00:03.917Z,94.6
2023-04-16T09:01:05.154Z,94.7
2023-04-16T09:02:06.465Z,94.7
2023-04-16T09:03:07.940Z,94.8
2023-04-16T09:04:09.426Z,94.8
2023-04-16T09:05:10.668Z,94.8
2023-04-16T09:06:11.609Z,94.8
2023-04-16T09:07:12.840Z,94.8
2023-04-16T09:08:14.077Z,94.8
2023-04-16T09:09:15.038Z,94.9
2023-04-16T09:10:15.815Z,94.9
2023-04-16T09:11:17.040Z,94.9
2023-04-16T09:12:18.276Z,94.9
2023-04-16T09:13:19.535Z,95
2023-04-16T09:14:20.788Z,95
2023-04-16T09:15:22.023Z,94.9
2023-04-16T09:16:22.853Z,94.9
2023-04-16T09:17:24.042Z,95
2023-04-16T09:18:25.225Z,95
2023-04-16T09:19:26.466Z,94.9
2023-04-16T09:20:27.710Z,94.9
2023-04-16T09:21:28.949Z,94.9
2023-04-16T09:22:29.921Z,94.9
2023-04-16T09:23:30.737Z,94.9
2023-04-16T09:24:31.975Z,94.9
2023-04-16T09:25:33.208Z,94.8
2023-04-16T09:26:34.439Z,94.8
2023-04-16T09:27:35.677Z,94.8
2023-04-16T09:28:36.930Z,94.9
2023-04-16T09:29:37.881Z,95
2023-04-16T09:30:39.116Z,95
2023-04-16T09:31:40.528Z,95
2023-04-16T09:32:41.665Z,95.1
2023-04-16T09:33:42.897Z,95.2
2023-04-16T09:34:44.121Z,95.2
2023-04-16T09:35:45.361Z,95.2
2023-04-16T09:36:46.585Z,95.3
2023-04-16T09:37:47.397Z,95.4
2023-04-16T09:38:48.627Z,95.4
2023-04-16T09:39:49.668Z,95.5
2023-04-16T09:40:50.704Z,95.5
2023-04-16T09:41:51.940Z,95.4
2023-04-16T09:42:53.180Z,95.3
2023-04-16T09:43:54.434Z,95.2
2023-04-16T09:45:00.012Z,95.2
2023-04-16T09:46:08.007Z,95.2
2023-04-16T09:47:09.568Z,95.2
2023-04-16T09:48:10.451Z,95.2
2023-04-16T09:49:12.240Z,95.3
2023-04-16T09:50:16.588Z,95.4
2023-04-16T09:51:18.912Z,95.4
2023-04-16T09:52:19.882Z,95.4
2023-04-16T09:53:20.966Z,95.4
2023-04-16T09:54:22.195Z,95.3
2023-04-16T09:55:23.171Z,95.2
2023-04-16T09:56:24.392Z,95.1
2023-04-16T09:57:25.627Z,95.1
2023-04-16T09:58:26.870Z,95.1
2023-04-16T09:59:27.868Z,95
2023-04-16T10:00:29.068Z,95
2023-04-16T10:01:30.497Z,94.9
2023-04-16T10:02:31.684Z,94.9
2023-04-16T10:03:33.570Z,94.8
2023-04-16T10:04:35.025Z,94.7
2023-04-16T10:05:36.249Z,94.7
2023-04-16T10:06:37.020Z,94.8
2023-04-16T10:07:38.252Z,94.9
2023-04-16T10:08:39.487Z,95
2023-04-16T10:09:40.729Z,95
2023-04-16T10:10:41.951Z,95
2023-04-16T10:11:42.996Z,95
2023-04-16T10:12:44.227Z,95
2023-04-16T10:13:45.471Z,95
2023-04-16T10:14:50.265Z,95
2023-04-16T10:15:51.647Z,95.1
2023-04-16T10:16:53.006Z,95.1
2023-04-16T10:17:54.052Z,95.2
2023-04-16T10:18:55.364Z,95.2
2023-04-16T10:19:56.600Z,95.3
2023-04-16T10:20:57.840Z,95.4
2023-04-16T10:21:59.069Z,95.5
2023-04-16T10:22:59.950Z,95.5
2023-04-16T10:24:00.787Z,95.5
2023-04-16T10:25:02.014Z,95.5
2023-04-16T10:26:03.250Z,95.5
2023-04-16T10:27:04.496Z,95.5
2023-04-16T10:28:05.271Z,95.5
2023-04-16T10:29:06.502Z,95.5
2023-04-16T10:30:07.761Z,95.4
2023-04-16T10:31:08.913Z,95.4
2023-04-16T10:32:10.090Z,95.4
2023-04-16T10:33:11.282Z,95.4
2023-04-16T10:34:12.301Z,95.5
2023-04-16T10:35:13.543Z,95.4
2023-04-16T10:36:14.781Z,95.5
2023-04-16T10:37:15.871Z,95.5
2023-04-16T10:38:17.105Z,95.5
2023-04-16T10:39:18.267Z,95.5
2023-04-16T10:40:19.508Z,95.5
2023-04-16T10:41:20.738Z,95.6
2023-04-16T10:42:21.971Z,95.6
2023-04-16T10:43:23.206Z,95.6
2023-04-16T10:44:24.442Z,95.6
2023-04-16T10:45:25.707Z,95.5
2023-04-16T10:46:27.045Z,95.5
2023-04-16T10:47:28.174Z,95.5
2023-04-16T10:48:50.059Z,95.4
2023-04-16T10:49:51.325Z,95.3
2023-04-16T10:50:52.929Z,95.4
2023-04-16T10:51:53.899Z,95.3
2023-04-16T10:52:54.670Z,95.4
2023-04-16T10:53:55.629Z,95.4
2023-04-16T10:54:56.864Z,95.4
2023-04-16T10:55:58.096Z,95.4
2023-04-16T10:56:59.420Z,95.4
2023-04-16T10:58:01.065Z,95.4
2023-04-16T10:59:02.031Z,95.3
2023-04-16T11:00:03.064Z,95.3
2023-04-16T11:01:04.330Z,95.2
2023-04-16T11:02:06.100Z,95.2
2023-04-16T11:03:07.863Z,95.2
2023-04-16T11:04:09.223Z,95.2
2023-04-16T11:05:10.255Z,95.1
2023-04-16T11:06:11.222Z,95
2023-04-16T11:07:12.466Z,95
2023-04-16T11:08:13.439Z,95
2023-04-16T11:09:14.320Z,95
2023-04-16T11:10:15.418Z,95
2023-04-16T11:11:16.861Z,95
2023-04-16T11:12:18.056Z,95
2023-04-16T11:13:19.300Z,94.9
2023-04-16T11:14:20.379Z,94.9
2023-04-16T11:15:21.608Z,94.8
2023-04-16T11:16:22.755Z,94.8
2023-04-16T11:17:24.249Z,94.8
2023-04-16T11:18:25.475Z,94.7
2023-04-16T11:19:26.438Z,94.7
2023-04-16T11:20:27.676Z,94.6
2023-04-16T11:21:28.902Z,94.5
2023-04-16T11:22:29.675Z,94.6
2023-04-16T11:23:30.902Z,94.6
2023-04-16T11:24:31.984Z,94.5
2023-04-16T11:25:33.213Z,94.5
2023-04-16T11:26:34.450Z,94.4
2023-04-16T11:27:35.538Z,94.4
2023-04-16T11:28:36.776Z,94.4
2023-04-16T11:29:37.806Z,94.4
2023-04-16T11:30:39.064Z,94.4
2023-04-16T11:31:40.186Z,94.4
2023-04-16T11:32:41.489Z,94.4
2023-04-16T11:33:42.506Z,94.4
2023-04-16T11:34:43.735Z,94.4
2023-04-16T11:35:44.966Z,94.3
2023-04-16T11:36:46.201Z,94.1
2023-04-16T11:37:47.452Z,94
2023-04-16T11:38:48.669Z,94
2023-04-16T11:39:49.745Z,94
2023-04-16T11:40:50.784Z,93.9
2023-04-16T11:41:52.020Z,93.8
2023-04-16T11:42:53.251Z,93.7
2023-04-16T11:43:54.329Z,93.6
2023-04-16T11:44:55.367Z,93.7
2023-04-16T11:45:56.604Z,93.7
2023-04-16T11:46:57.912Z,93.7
2023-04-16T11:47:59.494Z,93.7
2023-04-16T11:49:00.328Z,93.6
2023-04-16T11:50:01.610Z,93.6
2023-04-16T11:51:02.867Z,93.6
2023-04-16T11:52:04.100Z,93.6
2023-04-16T11:53:05.342Z,93.5
2023-04-16T11:54:06.575Z,93.5
2023-04-16T11:55:07.812Z,93.5
2023-04-16T11:56:09.044Z,93.5
2023-04-16T11:57:10.284Z,93.5
2023-04-16T11:58:11.521Z,93.5
2023-04-16T11:59:13.950Z,93.5
2023-04-16T12:00:15.426Z,93.4
2023-04-16T12:01:16.469Z,93.3
2023-04-16T12:02:17.707Z,93.4
2023-04-16T12:03:19.583Z,93.4
2023-04-16T12:04:20.951Z,93.5
2023-04-16T12:05:22.224Z,93.4
2023-04-16T12:06:25.004Z,93.4
2023-04-16T12:07:26.235Z,93.4
2023-04-16T12:08:27.526Z,93.4
2023-04-16T12:09:28.613Z,93.5
2023-04-16T12:10:29.856Z,93.5
2023-04-16T12:11:31.082Z,93.5
2023-04-16T12:12:32.717Z,93.5
2023-04-16T12:13:33.360Z,93.4
2023-04-16T12:14:34.570Z,93.3
2023-04-16T12:15:35.655Z,93.3
2023-04-16T12:16:36.751Z,93.2
2023-04-16T12:17:37.881Z,93.1
2023-04-16T12:18:38.919Z,93.1
2023-04-16T12:19:39.995Z,93.1
2023-04-16T12:20:41.034Z,93.1
2023-04-16T12:21:42.274Z,93
2023-04-16T12:22:43.529Z,93
2023-04-16T12:23:44.622Z,93
2023-04-16T12:24:45.704Z,93.1
2023-04-16T12:25:46.942Z,93.1
2023-04-16T12:26:48.172Z,93.1
2023-04-16T12:27:53.944Z,93.1
2023-04-16T12:28:55.247Z,93.1
2023-04-16T12:29:56.483Z,93
2023-04-16T12:30:57.690Z,92.9
2023-04-16T12:31:58.856Z,92.9
2023-04-16T12:33:00.157Z,92.9
2023-04-16T12:34:00.989Z,93
2023-04-16T12:35:02.067Z,92.8
2023-04-16T12:36:03.906Z,92.7
2023-04-16T12:37:05.143Z,92.5
2023-04-16T12:38:06.391Z,92.5
2023-04-16T12:39:07.819Z,92.5
2023-04-16T12:40:08.952Z,92.5
2023-04-16T12:41:10.183Z,92.4
2023-04-16T12:42:11.476Z,92.4
2023-04-16T12:43:12.661Z,92.5
2023-04-16T12:44:13.616Z,92.5
2023-04-16T12:45:14.688Z,92.4
2023-04-16T12:46:15.891Z,92.4
2023-04-16T12:47:17.085Z,92.4
2023-04-16T12:48:18.178Z,92.5
2023-04-16T12:49:19.679Z,92.6
2023-04-16T12:50:20.912Z,92.7
2023-04-16T12:51:22.148Z,92.7
2023-04-16T12:52:24.511Z,92.7
2023-04-16T12:53:25.745Z,92.6
2023-04-16T12:54:26.783Z,92.6
2023-04-16T12:55:28.015Z,92.6
2023-04-16T12:56:29.250Z,92.6
2023-04-16T12:57:30.493Z,92.6
2023-04-16T12:58:31.720Z,92.6
2023-04-16T12:59:32.958Z,92.6
2023-04-16T13:00:34.046Z,92.7
2023-04-16T13:01:35.426Z,92.8
2023-04-16T13:02:36.377Z,92.9
2023-04-16T13:03:38.013Z,92.9
2023-04-16T13:04:39.402Z,92.9
2023-04-16T13:05:40.777Z,92.9
2023-04-16T13:06:42.006Z,92.9
2023-04-16T13:07:43.246Z,92.9
2023-04-16T13:08:44.360Z,92.8
2023-04-16T13:09:45.320Z,92.7
2023-04-16T13:10:46.558Z,92.7
2023-04-16T13:11:47.790Z,92.7
2023-04-16T13:12:48.886Z,92.7
2023-04-16T13:13:50.039Z,92.8
2023-04-16T13:14:51.280Z,92.8
2023-04-16T13:15:52.640Z,92.8
2023-04-16T13:16:53.971Z,92.9
2023-04-16T13:17:55.105Z,92.9
2023-04-16T13:18:56.360Z,93
2023-04-16T13:19:57.457Z,93.1
2023-04-16T13:20:58.422Z,93.1
2023-04-16T13:21:59.500Z,93.1
2023-04-16T13:23:00.732Z,93.2
2023-04-16T13:24:01.964Z,93.2
2023-04-16T13:25:03.197Z,93.2
2023-04-16T13:26:04.239Z,93.2
2023-04-16T13:27:05.469Z,93.2
2023-04-16T13:28:06.710Z,93.3
2023-04-16T13:29:08.088Z,93.3
2023-04-16T13:30:09.547Z,93.4
2023-04-16T13:31:10.781Z,93.4
2023-04-16T13:32:12.093Z,93.4
2023-04-16T13:33:13.329Z,93.4
2023-04-16T13:34:14.583Z,93.4
2023-04-16T13:35:15.686Z,93.4
2023-04-16T13:36:16.581Z,93.4
2023-04-16T13:37:17.807Z,93.4
2023-04-16T13:38:18.836Z,93.4
2023-04-16T13:39:19.879Z,93.4
2023-04-16T13:40:20.913Z,93.4
2023-04-16T13:41:22.150Z,93.4
2023-04-16T13:42:23.403Z,93.4
2023-04-16T13:43:24.615Z,93.5
2023-04-16T13:44:25.688Z,93.5